Time;durP1;ratioP1;P1;durP2;ratioP2;P2;SDS_P1;SDS_P2;PMS_P1;PMS_P2;Temp;Humidity;BMP_temperature;BMP_pressure;BME280_temperature;BME280_humidity;BME280_pressure;Samples;Min_cycle;Max_cycle;Signal;HPM_P1;HPM_P2
2022/10/03 00:01:47;;;;;;;0.00;0.00;;;11.10;99.90;;;;;;5017909;28;20555;-87
2022/10/03 00:04:34;;;;;;;0.00;0.00;;;11.00;99.90;;;;;;5007636;28;20049;-85
2022/10/03 00:07:10;;;;;;;0.00;0.00;;;11.00;99.90;;;;;;5012324;28;20421;-86
2022/10/03 00:09:56;;;;;;;0.00;0.00;;;11.10;99.90;;;;;;5011814;28;20041;-87
2022/10/03 00:12:46;;;;;;;0.00;0.00;;;11.70;99.90;;;;;;5025582;28;20124;-87
2022/10/03 00:15:20;;;;;;;0.10;0.10;;;12.30;99.90;;;;;;5024637;28;20497;-86
2022/10/03 00:17:55;;;;;;;0.00;0.00;;;11.00;99.90;;;;;;5023682;28;20119;-88
2022/10/03 00:20:44;;;;;;;0.00;0.00;;;11.00;99.90;;;;;;5028959;28;20383;-87
2022/10/03 00:23:17;;;;;;;0.00;0.00;;;10.90;99.90;;;;;;5021871;28;20077;-87
2022/10/03 00:25:53;;;;;;;0.10;0.10;;;10.90;99.90;;;;;;5008140;28;20047;-88
2022/10/03 00:28:40;;;;;;;0.00;0.00;;;11.00;99.90;;;;;;5011116;28;20100;-87
2022/10/03 00:31:12;;;;;;;0.00;0.00;;;12.70;99.90;;;;;;5025741;28;20486;-87
2022/10/03 00:33:53;;;;;;;0.00;0.00;;;11.10;99.90;;;;;;5011341;28;20041;-88
2022/10/03 00:36:33;;;;;;;0.00;0.00;;;13.00;99.90;;;;;;5024415;28;20577;-87
2022/10/03 00:39:20;;;;;;;;;;;12.20;99.90;;;;;;5013058;28;20093;-87
2022/10/03 00:42:16;;;;;;;0.00;0.00;;;11.00;99.90;;;;;;5031320;28;19921;-87
2022/10/03 00:45:17;;;;;;;0.00;0.00;;;11.00;99.90;;;;;;5034100;28;20055;-87
2022/10/03 00:48:14;;;;;;;0.10;0.10;;;11.00;99.90;;;;;;4988350;28;20497;-87
2022/10/03 00:50:54;;;;;;;0.00;0.00;;;10.90;99.90;;;;;;5025764;28;20563;-87
2022/10/03 00:53:32;;;;;;;;;;;10.80;99.90;;;;;;5012658;28;20045;-88
2022/10/03 00:56:22;;;;;;;0.00;0.00;;;10.80;99.90;;;;;;5022763;28;20016;-88
2022/10/03 00:59:08;;;;;;;0.10;0.10;;;10.80;99.90;;;;;;4990744;28;20521;-88
2022/10/03 01:01:41;;;;;;;0.00;0.00;;;10.70;99.90;;;;;;5026553;28;20116;-88
2022/10/03 01:04:27;;;;;;;0.10;0.10;;;10.60;99.90;;;;;;5020073;28;20057;-88
2022/10/03 01:07:04;;;;;;;0.10;0.10;;;10.70;99.90;;;;;;5019095;28;20068;-87
2022/10/03 01:09:49;;;;;;;0.03;0.03;;;10.60;99.90;;;;;;5009666;28;20512;-87
2022/10/03 01:12:28;;;;;;;0.00;0.00;;;10.60;99.90;;;;;;5011927;28;20466;-87
2022/10/03 01:15:14;;;;;;;0.10;0.10;;;10.70;99.90;;;;;;5022952;28;20057;-87
2022/10/03 01:17:52;;;;;;;0.00;0.00;;;10.60;99.90;;;;;;5024073;28;20038;-87
2022/10/03 01:20:29;;;;;;;0.10;0.10;;;10.60;99.90;;;;;;5022999;28;20049;-87
2022/10/03 01:23:28;;;;;;;0.05;0.05;;;10.70;99.90;;;;;;5024534;28;20069;-87
2022/10/03 01:26:10;;;;;;;0.00;0.00;;;10.70;99.90;;;;;;5009743;28;20424;-87
2022/10/03 01:31:42;;;;;;;0.10;0.10;;;10.70;99.90;;;;;;5025935;28;20041;-87
2022/10/03 01:34:15;;;;;;;0.10;0.10;;;10.70;99.90;;;;;;5025033;28;20434;-88
2022/10/03 01:36:52;;;;;;;0.00;0.00;;;10.70;99.90;;;;;;5023002;28;20045;-88
2022/10/03 01:39:27;;;;;;;0.08;0.08;;;10.70;99.90;;;;;;5006093;28;20034;-87
2022/10/03 01:42:00;;;;;;;0.00;0.00;;;10.70;99.90;;;;;;5008719;28;20087;-88
2022/10/03 01:44:39;;;;;;;0.08;0.08;;;10.60;99.90;;;;;;5027334;28;20053;-87
2022/10/03 01:47:18;;;;;;;0.00;0.00;;;10.60;99.90;;;;;;5022013;28;20484;-87
2022/10/03 01:49:50;;;;;;;0.00;0.00;;;10.60;99.90;;;;;;5010855;28;20048;-88
2022/10/03 01:52:24;;;;;;;0.10;0.10;;;10.60;99.90;;;;;;5009912;28;20128;-87
2022/10/03 01:55:00;;;;;;;0.00;0.00;;;11.50;99.90;;;;;;5025847;28;20573;-87
2022/10/03 01:57:34;;;;;;;0.00;0.00;;;10.40;99.90;;;;;;5020602;28;20127;-86
2022/10/03 02:00:10;;;;;;;0.00;0.00;;;10.50;99.90;;;;;;5013349;28;20047;-87
2022/10/03 02:02:44;;;;;;;0.00;0.00;;;10.50;99.90;;;;;;5029099;28;20140;-87
2022/10/03 02:05:18;;;;;;;0.05;0.05;;;10.40;99.90;;;;;;5028869;28;20050;-88
2022/10/03 02:07:54;;;;;;;0.00;0.00;;;10.40;99.90;;;;;;5029325;28;20565;-88
2022/10/03 02:10:32;;;;;;;0.00;0.00;;;10.40;99.90;;;;;;5026138;28;20120;-88
2022/10/03 02:13:08;;;;;;;0.00;0.00;;;10.40;99.90;;;;;;5026082;28;20052;-88
2022/10/03 02:15:53;;;;;;;0.05;0.05;;;10.40;99.90;;;;;;5026511;28;20567;-86
2022/10/03 02:18:27;;;;;;;0.00;0.00;;;10.40;99.90;;;;;;5010707;28;20046;-88
2022/10/03 02:21:07;;;;;;;0.00;0.00;;;10.30;99.90;;;;;;5030231;28;20121;-87
2022/10/03 02:23:39;;;;;;;0.00;0.00;;;10.30;99.90;;;;;;5012283;28;20153;-87
2022/10/03 02:26:30;;;;;;;0.00;0.00;;;10.40;99.90;;;;;;5034231;28;20493;-87
2022/10/03 02:29:32;;;;;;;0.10;0.10;;;10.30;99.90;;;;;;5031189;28;20498;-88
2022/10/03 02:32:35;;;;;;;0.00;0.00;;;10.30;99.90;;;;;;5032231;28;20506;-87
2022/10/03 02:35:20;;;;;;;0.00;0.00;;;10.30;99.90;;;;;;5031471;28;20541;-87
2022/10/03 02:38:11;;;;;;;0.00;0.00;;;10.30;99.90;;;;;;5032428;28;20056;-87
2022/10/03 02:41:14;;;;;;;0.05;0.05;;;10.30;99.90;;;;;;5032324;28;20429;-88
2022/10/03 02:44:10;;;;;;;0.10;0.10;;;10.30;99.90;;;;;;5006521;28;20104;-87
2022/10/03 02:47:09;;;;;;;0.00;0.00;;;10.30;99.90;;;;;;5030812;28;20049;-87
2022/10/03 02:50:18;;;;;;;0.00;0.00;;;10.20;99.90;;;;;;5031983;28;20042;-87
2022/10/03 02:53:28;;;;;;;0.00;0.00;;;10.30;99.90;;;;;;5026267;28;20045;-86
2022/10/03 02:56:40;;;;;;;0.00;0.00;;;10.30;99.90;;;;;;5028631;28;20140;-86
2022/10/03 02:59:53;;;;;;;0.10;0.10;;;10.30;99.90;;;;;;5025413;28;20136;-87
2022/10/03 03:03:00;;;;;;;0.10;0.10;;;10.20;99.90;;;;;;4977773;28;20535;-88
2022/10/03 03:06:11;;;;;;;0.10;0.10;;;10.20;99.90;;;;;;5027656;28;20053;-87
2022/10/03 03:09:17;;;;;;;0.10;0.10;;;10.20;99.90;;;;;;5011772;28;20506;-87
2022/10/03 03:12:04;;;;;;;0.10;0.10;;;10.10;99.90;;;;;;5027546;28;20045;-87
2022/10/03 03:15:07;;;;;;;0.00;0.00;;;10.10;99.90;;;;;;5026823;28;20046;-87
2022/10/03 03:17:40;;;;;;;0.00;0.00;;;10.10;99.90;;;;;;5007329;28;20061;-87
2022/10/03 03:20:36;;;;;;;0.10;0.10;;;10.10;99.90;;;;;;5016063;28;20116;-88
2022/10/03 03:23:32;;;;;;;0.10;0.10;;;10.10;99.90;;;;;;5005097;28;20160;-88
2022/10/03 03:26:34;;;;;;;0.00;0.00;;;10.10;99.90;;;;;;5008456;28;20416;-87
2022/10/03 03:29:13;;;;;;;0.00;0.00;;;10.20;99.90;;;;;;5033575;28;20049;-87
2022/10/03 03:31:48;;;;;;;0.10;0.10;;;10.20;99.90;;;;;;5023669;28;20038;-88
2022/10/03 03:34:21;;;;;;;0.03;0.03;;;10.20;99.90;;;;;;5031223;28;20045;-89
2022/10/03 03:36:54;;;;;;;0.00;0.00;;;10.40;99.90;;;;;;5009710;28;20049;-87
2022/10/03 03:39:38;;;;;;;0.10;0.10;;;10.20;99.90;;;;;;5027679;28;20042;-86
2022/10/03 03:42:30;;;;;;;0.00;0.00;;;10.30;99.90;;;;;;5008366;28;20956;-87
2022/10/03 03:45:07;;;;;;;0.00;0.00;;;10.20;99.90;;;;;;5018315;28;20045;-87
2022/10/03 03:47:59;;;;;;;0.00;0.00;;;10.20;99.90;;;;;;5027605;28;20049;-87
2022/10/03 03:50:38;;;;;;;0.10;0.10;;;10.20;99.90;;;;;;5025103;28;20038;-88
2022/10/03 03:53:43;;;;;;;0.00;0.00;;;10.20;99.90;;;;;;5030101;28;20056;-88
2022/10/03 03:56:45;;;;;;;0.10;0.10;;;10.20;99.90;;;;;;5026902;28;20288;-87
2022/10/03 03:59:25;;;;;;;0.00;0.00;;;10.20;99.90;;;;;;5010268;28;20568;-87
2022/10/03 04:02:05;;;;;;;;;;;10.20;99.90;;;;;;5008279;28;20045;-87
2022/10/03 04:05:02;;;;;;;0.08;0.08;;;10.10;99.90;;;;;;5028443;28;19921;-86
2022/10/03 04:07:47;;;;;;;0.10;0.10;;;10.10;99.90;;;;;;5024656;28;20041;-87
2022/10/03 04:10:30;;;;;;;0.00;0.00;;;10.10;99.90;;;;;;5010045;28;20515;-88
2022/10/03 04:13:46;;;;;;;0.03;0.03;;;10.00;99.90;;;;;;5023239;28;20164;-87
2022/10/03 04:19:28;;;;;;;0.10;0.10;;;12.10;99.90;;;;;;4946809;28;20102;-88
2022/10/03 04:22:28;;;;;;;0.00;0.00;;;9.90;99.90;;;;;;4998969;28;20087;-88
2022/10/03 04:25:19;;;;;;;0.08;0.08;;;10.00;99.90;;;;;;5019366;28;20064;-89
2022/10/03 04:28:12;;;;;;;0.10;0.10;;;10.00;99.90;;;;;;5026265;28;20045;-87
2022/10/03 04:30:54;;;;;;;0.10;0.10;;;10.00;99.90;;;;;;5006728;28;20044;-88
2022/10/03 04:33:36;;;;;;;0.00;0.00;;;10.00;99.90;;;;;;5026238;28;20048;-87
2022/10/03 04:36:37;;;;;;;0.10;0.10;;;9.90;99.90;;;;;;5033786;28;20322;-86
2022/10/03 04:39:13;;;;;;;0.10;0.10;;;9.90;99.90;;;;;;5012744;28;20528;-87
2022/10/03 04:41:48;;;;;;;0.00;0.00;;;9.90;99.90;;;;;;5069260;22;20041;-83
2022/10/03 04:44:30;;;;;;;0.10;0.10;;;10.00;99.90;;;;;;5050519;28;20048;-84
2022/10/03 04:47:04;;;;;;;0.10;0.10;;;10.00;99.90;;;;;;5060173;28;20036;-85
2022/10/03 04:49:37;;;;;;;0.10;0.10;;;10.00;99.90;;;;;;5055902;28;20047;-85
2022/10/03 04:52:17;;;;;;;0.10;0.10;;;10.00;99.90;;;;;;5049561;28;20033;-84
2022/10/03 04:54:53;;;;;;;0.10;0.10;;;10.00;99.90;;;;;;5045147;28;20105;-81
2022/10/03 04:57:26;;;;;;;0.10;0.10;;;10.00;99.90;;;;;;5062817;28;20689;-81
2022/10/03 05:00:02;;;;;;;0.10;0.10;;;10.10;99.90;;;;;;5049950;28;20056;-82
2022/10/03 05:02:42;;;;;;;0.10;0.10;;;10.10;99.90;;;;;;5045669;28;20102;-82
2022/10/03 05:05:33;;;;;;;0.10;0.10;;;10.20;99.90;;;;;;5043877;28;20037;-80
2022/10/03 05:08:11;;;;;;;0.00;0.00;;;10.20;99.90;;;;;;5049388;28;20043;-81
2022/10/03 05:10:55;;;;;;;0.10;0.10;;;10.30;99.90;;;;;;5050904;28;20262;-80
2022/10/03 05:13:38;;;;;;;0.10;0.10;;;10.40;99.90;;;;;;5046161;28;20065;-82
2022/10/03 05:16:13;;;;;;;0.00;0.00;;;10.40;99.90;;;;;;5048897;28;20041;-81
2022/10/03 05:18:46;;;;;;;0.10;0.10;;;10.30;99.90;;;;;;5042604;28;20045;-81
2022/10/03 05:21:22;;;;;;;0.00;0.00;;;10.30;99.90;;;;;;5047527;28;20031;-82
2022/10/03 05:24:01;;;;;;;0.00;0.00;;;10.40;99.90;;;;;;5047595;28;20419;-82
2022/10/03 05:26:42;;;;;;;0.03;0.03;;;10.50;99.90;;;;;;5046020;28;20064;-81
2022/10/03 05:29:19;;;;;;;0.00;0.00;;;10.50;99.90;;;;;;5045339;28;20044;-80
2022/10/03 05:31:56;;;;;;;0.00;0.00;;;10.60;99.90;;;;;;5037416;28;20501;-82
2022/10/03 05:34:37;;;;;;;0.00;0.00;;;10.60;99.90;;;;;;5043117;28;20052;-84
2022/10/03 05:37:33;;;;;;;0.00;0.00;;;10.60;99.90;;;;;;5044821;28;20125;-80
2022/10/03 05:40:04;;;;;;;0.05;0.05;;;10.70;99.90;;;;;;5049128;28;20485;-82
2022/10/03 05:42:54;;;;;;;0.10;0.10;;;10.70;99.90;;;;;;5052882;28;20043;-83
2022/10/03 05:45:29;;;;;;;0.10;0.10;;;10.80;99.90;;;;;;5040868;28;20045;-79
2022/10/03 05:48:10;;;;;;;0.00;0.00;;;10.80;99.90;;;;;;5047502;28;20048;-82
2022/10/03 05:51:21;;;;;;;0.00;0.00;;;10.90;99.90;;;;;;5044793;28;20067;-78
2022/10/03 05:54:20;;;;;;;0.10;0.10;;;10.90;99.90;;;;;;5046795;28;20053;-82
2022/10/03 05:57:07;;;;;;;0.10;0.10;;;10.90;99.90;;;;;;5044603;28;20068;-81
2022/10/03 05:59:58;;;;;;;0.00;0.00;;;10.90;99.90;;;;;;5045117;28;20049;-81
2022/10/03 06:02:55;;;;;;;0.00;0.00;;;11.00;99.90;;;;;;5040348;28;20417;-80
2022/10/03 06:05:42;;;;;;;0.00;0.00;;;11.00;99.90;;;;;;5022802;28;20055;-83
2022/10/03 06:08:32;;;;;;;0.00;0.00;;;11.10;99.90;;;;;;5053036;28;20045;-82
2022/10/03 06:11:16;;;;;;;0.00;0.00;;;11.10;99.90;;;;;;5044294;28;20124;-82
2022/10/03 06:14:13;;;;;;;0.00;0.00;;;11.20;99.90;;;;;;5041339;28;20299;-80
2022/10/03 06:16:52;;;;;;;0.00;0.00;;;11.20;99.90;;;;;;5058077;28;20051;-80
2022/10/03 06:19:39;;;;;;;0.00;0.00;;;11.20;99.90;;;;;;5057243;28;20055;-82
2022/10/03 06:22:38;;;;;;;0.00;0.00;;;11.30;99.90;;;;;;5049223;28;20053;-82
2022/10/03 06:25:52;;;;;;;0.00;0.00;;;11.30;99.90;;;;;;5050506;28;20040;-81
2022/10/03 06:28:52;;;;;;;0.00;0.00;;;11.30;99.90;;;;;;5021391;28;20063;-79
2022/10/03 06:32:00;;;;;;;0.00;0.00;;;11.40;99.90;;;;;;5069196;28;20428;-82
2022/10/03 06:35:03;;;;;;;0.00;0.00;;;11.40;99.90;;;;;;5051903;28;20045;-83
2022/10/03 06:37:52;;;;;;;0.00;0.00;;;11.50;99.90;;;;;;5050621;28;20142;-82
2022/10/03 06:40:40;;;;;;;0.00;0.00;;;11.50;99.90;;;;;;5048096;28;20063;-79
2022/10/03 06:43:36;;;;;;;0.00;0.00;;;11.40;99.90;;;;;;5046698;28;20041;-81
2022/10/03 06:46:44;;;;;;;0.00;0.00;;;11.50;99.90;;;;;;5042648;28;20045;-83
2022/10/03 06:49:52;;;;;;;0.00;0.00;;;11.60;99.90;;;;;;5042096;28;20045;-82
2022/10/03 06:52:44;;;;;;;0.00;0.00;;;11.60;99.90;;;;;;5048498;28;20039;-83
2022/10/03 06:55:40;;;;;;;0.00;0.00;;;11.60;99.90;;;;;;5044873;28;20411;-78
2022/10/03 06:58:44;;;;;;;0.08;0.08;;;11.50;99.90;;;;;;5049139;28;20041;-82
2022/10/03 07:01:49;;;;;;;0.00;0.00;;;11.60;99.90;;;;;;5060017;28;20125;-79
2022/10/03 07:04:48;;;;;;;0.05;0.05;;;11.60;99.90;;;;;;5047977;28;20056;-83
2022/10/03 07:07:48;;;;;;;0.00;0.00;;;11.80;99.90;;;;;;5050456;28;20066;-82
2022/10/03 07:10:28;;;;;;;0.00;0.00;;;11.80;99.90;;;;;;5044124;28;20045;-80
2022/10/03 07:13:26;;;;;;;0.00;0.00;;;11.80;99.90;;;;;;5042559;28;20040;-81
2022/10/03 07:16:29;;;;;;;0.00;0.00;;;11.80;99.90;;;;;;5043515;28;20041;-82
2022/10/03 07:19:36;;;;;;;0.00;0.00;;;11.90;99.90;;;;;;5043451;28;20120;-83
2022/10/03 07:22:35;;;;;;;0.00;0.00;;;11.90;99.90;;;;;;5038137;28;20124;-82
2022/10/03 07:25:24;;;;;;;0.00;0.00;;;11.90;99.90;;;;;;5054222;28;20087;-81
2022/10/03 07:28:24;;;;;;;0.00;0.00;;;11.90;99.90;;;;;;5051619;28;20048;-83
2022/10/03 07:31:02;;;;;;;0.00;0.00;;;12.00;99.90;;;;;;5052185;28;20534;-82
2022/10/03 07:34:03;;;;;;;0.00;0.00;;;12.10;99.90;;;;;;5053919;28;20048;-83
2022/10/03 07:39:59;;;;;;;0.00;0.00;;;12.40;99.90;;;;;;5055302;28;20048;-82
2022/10/03 07:43:02;;;;;;;0.00;0.00;;;12.30;99.90;;;;;;5054355;28;20045;-81
2022/10/03 07:45:38;;;;;;;0.00;0.00;;;12.40;99.90;;;;;;5053285;28;20412;-81
2022/10/03 07:48:23;;;;;;;0.00;0.00;;;12.60;99.90;;;;;;5059568;28;20051;-83
2022/10/03 07:51:09;;;;;;;0.00;0.00;;;12.70;99.90;;;;;;5054667;28;20044;-83
2022/10/03 07:54:23;;;;;;;0.00;0.00;;;12.80;99.90;;;;;;5049520;28;20055;-83
2022/10/03 07:57:15;;;;;;;0.00;0.00;;;12.70;99.90;;;;;;5057892;28;20044;-83
2022/10/03 08:00:21;;;;;;;0.00;0.00;;;12.70;99.90;;;;;;5075327;28;20052;-83
2022/10/03 08:03:44;;;;;;;0.00;0.00;;;12.90;99.90;;;;;;5057847;28;20095;-79
2022/10/03 08:06:23;;;;;;;0.00;0.00;;;12.90;99.90;;;;;;5068769;28;20596;-85
2022/10/03 08:09:18;;;;;;;0.00;0.00;;;12.90;99.90;;;;;;5056882;28;20045;-83
2022/10/03 08:12:04;;;;;;;0.00;0.00;;;13.10;99.90;;;;;;5051892;28;20064;-83
2022/10/03 08:14:42;;;;;;;0.00;0.00;;;13.20;99.90;;;;;;5053260;28;20048;-82
2022/10/03 08:17:43;;;;;;;0.00;0.00;;;13.20;99.90;;;;;;5052518;28;20043;-83
2022/10/03 08:20:22;;;;;;;0.00;0.00;;;13.30;99.90;;;;;;5048852;28;20037;-82
2022/10/03 08:23:01;;;;;;;0.00;0.00;;;13.40;99.90;;;;;;5058633;28;20040;-82
2022/10/03 08:25:45;;;;;;;0.00;0.00;;;13.40;99.90;;;;;;5058195;28;20055;-82
2022/10/03 08:28:41;;;;;;;0.00;0.00;;;13.30;99.90;;;;;;5055873;28;20041;-82
2022/10/03 08:31:32;;;;;;;0.00;0.00;;;13.30;99.90;;;;;;5059139;28;20063;-81
2022/10/03 08:34:39;;;;;;;0.00;0.00;;;13.30;99.90;;;;;;5064427;28;20055;-83
2022/10/03 08:37:40;;;;;;;0.00;0.00;;;13.40;99.90;;;;;;5047312;28;20060;-83
2022/10/03 08:40:45;;;;;;;0.00;0.00;;;13.20;99.90;;;;;;5020721;28;20056;-83
2022/10/03 08:43:44;;;;;;;0.00;0.00;;;13.10;99.90;;;;;;5059546;28;20223;-80
2022/10/03 08:46:34;;;;;;;0.00;0.00;;;13.20;99.90;;;;;;5041401;28;20106;-82
2022/10/03 08:49:16;;;;;;;0.00;0.00;;;13.20;99.90;;;;;;5059395;28;20052;-82
2022/10/03 08:52:00;;;;;;;0.00;0.00;;;13.00;99.90;;;;;;5063225;28;20044;-85
2022/10/03 08:54:52;;;;;;;0.00;0.00;;;13.10;99.90;;;;;;5059010;28;20043;-85
2022/10/03 08:57:59;;;;;;;0.00;0.00;;;13.10;99.90;;;;;;5057416;28;20044;-83
2022/10/03 09:00:32;;;;;;;0.00;0.00;;;13.00;99.90;;;;;;5024945;28;20490;-85
2022/10/03 09:03:49;;;;;;;0.00;0.00;;;13.00;99.90;;;;;;5057327;28;20047;-86
2022/10/03 09:06:55;;;;;;;0.00;0.00;;;13.00;99.90;;;;;;5015422;28;20049;-85
2022/10/03 09:10:09;;;;;;;0.00;0.00;;;13.00;99.90;;;;;;5019146;28;20049;-86
2022/10/03 09:13:19;;;;;;;0.00;0.00;;;13.10;99.90;;;;;;5052148;28;20029;-83
2022/10/03 09:16:35;;;;;;;0.00;0.00;;;13.20;99.90;;;;;;5056265;28;20051;-83
2022/10/03 09:19:39;;;;;;;0.00;0.00;;;13.30;99.90;;;;;;5040707;28;20053;-85
2022/10/03 09:22:20;;;;;;;0.00;0.00;;;13.50;99.90;;;;;;5058521;28;20052;-82
2022/10/03 09:25:29;;;;;;;0.00;0.00;;;13.50;99.90;;;;;;5069700;28;20120;-83
2022/10/03 09:28:43;;;;;;;0.00;0.00;;;13.70;99.90;;;;;;5058060;28;20068;-82
2022/10/03 09:31:27;;;;;;;0.00;0.00;;;13.80;99.90;;;;;;5059088;28;20032;-82
2022/10/03 09:34:16;;;;;;;0.00;0.00;;;13.90;99.90;;;;;;5059558;28;20517;-80
2022/10/03 09:37:24;;;;;;;0.00;0.00;;;13.90;99.90;;;;;;5050023;28;20042;-81
2022/10/03 09:40:26;;;;;;;0.00;0.00;;;14.10;99.90;;;;;;5061274;28;20519;-80
2022/10/03 09:43:26;;;;;;;0.00;0.00;;;14.20;99.90;;;;;;5038894;28;20423;-81
2022/10/03 09:46:26;;;;;;;0.00;0.00;;;14.30;99.90;;;;;;5055944;28;20059;-82
2022/10/03 09:49:24;;;;;;;0.00;0.00;;;14.30;99.90;;;;;;5046980;28;20060;-81
2022/10/03 09:52:04;;;;;;;0.00;0.00;;;14.50;99.90;;;;;;5052616;28;20416;-82
2022/10/03 09:54:57;;;;;;;0.00;0.00;;;14.60;99.90;;;;;;5057385;28;20041;-81
2022/10/03 09:58:04;;;;;;;0.00;0.00;;;14.70;99.90;;;;;;5050473;28;20040;-82
2022/10/03 10:00:57;;;;;;;0.00;0.00;;;14.60;99.90;;;;;;5050222;28;20519;-81
2022/10/03 10:04:12;;;;;;;0.00;0.00;;;14.50;99.90;;;;;;5060443;28;20036;-82
2022/10/03 10:07:07;;;;;;;0.00;0.00;;;14.60;99.90;;;;;;5047796;28;20107;-83
2022/10/03 10:10:01;;;;;;;0.00;0.00;;;14.50;99.90;;;;;;5046632;28;20127;-80
2022/10/03 10:13:03;;;;;;;0.00;0.00;;;14.40;99.90;;;;;;5062256;28;20069;-81
2022/10/03 10:16:09;;;;;;;0.00;0.00;;;14.30;99.90;;;;;;5051087;28;20063;-82
2022/10/03 10:19:04;;;;;;;0.00;0.00;;;14.30;99.90;;;;;;5056237;28;20056;-83
2022/10/03 10:22:00;;;;;;;0.00;0.00;;;14.30;99.90;;;;;;5054931;28;20045;-79
2022/10/03 10:24:58;;;;;;;0.00;0.00;;;14.30;99.90;;;;;;5052416;28;20059;-82
2022/10/03 10:27:58;;;;;;;0.00;0.00;;;14.20;99.90;;;;;;5024668;28;20052;-80
2022/10/03 10:31:16;;;;;;;0.00;0.00;;;14.20;99.90;;;;;;5058704;28;20039;-83
2022/10/03 10:34:34;;;;;;;0.00;0.00;;;14.30;99.90;;;;;;4990302;28;20058;-83
2022/10/03 10:37:34;;;;;;;0.00;0.00;;;14.50;99.90;;;;;;5048505;28;20048;-80
2022/10/03 10:40:25;;;;;;;0.00;0.00;;;14.60;99.90;;;;;;5061664;28;20453;-81
2022/10/03 10:45:57;;;;;;;0.00;0.00;;;15.10;99.90;;;;;;5057768;28;20044;-81
2022/10/03 10:49:15;;;;;;;0.00;0.00;;;15.20;99.90;;;;;;5059707;28;20501;-81
2022/10/03 10:52:42;;;;;;;0.00;0.00;;;15.30;99.90;;;;;;5054544;28;20053;-82
2022/10/03 10:55:59;;;;;;;0.00;0.00;;;15.40;99.90;;;;;;5038991;28;20041;-80
2022/10/03 10:59:27;;;;;;;0.00;0.00;;;15.50;99.90;;;;;;5033924;28;20116;-82
2022/10/03 11:02:46;;;;;;;0.00;0.00;;;15.70;99.90;;;;;;5053860;28;20064;-82
2022/10/03 11:05:41;;;;;;;0.00;0.00;;;15.60;99.90;;;;;;5034379;28;20095;-82
2022/10/03 11:09:05;;;;;;;0.00;0.00;;;15.60;99.90;;;;;;5029064;28;20034;-81
2022/10/03 11:12:19;;;;;;;0.00;0.00;;;15.60;99.90;;;;;;5029469;28;20454;-81
2022/10/03 11:15:42;;;;;;;0.00;0.00;;;15.60;99.90;;;;;;5040603;28;20045;-81
2022/10/03 11:18:51;;;;;;;0.00;0.00;;;15.60;99.90;;;;;;4971164;28;20046;-82
2022/10/03 11:22:01;;;;;;;0.00;0.00;;;15.60;99.90;;;;;;5012823;28;20140;-82
2022/10/03 11:25:08;;;;;;;0.00;0.00;;;15.40;99.90;;;;;;5037342;28;20536;-81
2022/10/03 11:28:25;;;;;;;0.00;0.00;;;15.40;99.90;;;;;;5045100;28;20488;-82
2022/10/03 11:31:24;;;;;;;0.00;0.00;;;15.60;99.90;;;;;;5042554;28;20111;-82
2022/10/03 11:34:24;;;;;;;0.00;0.00;;;16.00;99.90;;;;;;5037471;28;20045;-81
2022/10/03 11:37:05;;;;;;;0.00;0.00;;;16.30;99.90;;;;;;5035298;28;20045;-81
2022/10/03 11:39:42;;;;;;;0.00;0.00;;;16.10;99.90;;;;;;5035048;28;20045;-82
2022/10/03 11:42:21;;;;;;;0.00;0.00;;;16.10;99.90;;;;;;5037069;28;20510;-83
2022/10/03 11:44:57;;;;;;;0.00;0.00;;;16.00;99.90;;;;;;5023658;28;20073;-80
2022/10/03 11:47:45;;;;;;;0.00;0.00;;;16.00;99.90;;;;;;5031773;28;20056;-81
2022/10/03 11:50:42;;;;;;;0.00;0.00;;;16.00;99.90;;;;;;5047861;28;20136;-81
2022/10/03 11:53:45;;;;;;;0.00;0.00;;;16.00;99.90;;;;;;5056054;28;20401;-81
2022/10/03 11:56:38;;;;;;;0.00;0.00;;;16.00;99.90;;;;;;5053180;28;20389;-81
2022/10/03 11:59:44;;;;;;;0.00;0.00;;;16.00;99.90;;;;;;5024057;28;20057;-81
2022/10/03 12:02:18;;;;;;;0.00;0.00;;;16.20;99.90;;;;;;5050865;28;20128;-81
2022/10/03 12:04:57;;;;;;;0.00;0.00;;;16.30;99.90;;;;;;5029361;28;20472;-82
2022/10/03 12:10:38;;;;;;;0.00;0.00;;;17.40;99.90;;;;;;5030383;28;20044;-82
2022/10/03 12:13:13;;;;;;;0.00;0.00;;;16.30;99.90;;;;;;5036070;28;20049;-82
2022/10/03 12:15:44;;;;;;;0.00;0.00;;;16.40;99.90;;;;;;5039159;28;20048;-81
2022/10/03 12:18:17;;;;;;;0.00;0.00;;;16.50;99.90;;;;;;5033458;28;20041;-81
2022/10/03 12:21:09;;;;;;;0.00;0.00;;;16.60;99.90;;;;;;5036536;28;20044;-81
2022/10/03 12:24:04;;;;;;;0.00;0.00;;;16.70;99.90;;;;;;5037617;28;20045;-82
2022/10/03 12:26:42;;;;;;;0.00;0.00;;;16.90;99.90;;;;;;5033393;28;20045;-81
2022/10/03 12:29:14;;;;;;;0.00;0.00;;;16.90;99.90;;;;;;5035454;28;20045;-81
2022/10/03 12:31:48;;;;;;;0.00;0.00;;;17.10;99.90;;;;;;5041497;28;20128;-81
2022/10/03 12:34:32;;;;;;;0.00;0.00;;;17.00;99.90;;;;;;5035862;28;20053;-82
2022/10/03 12:37:22;;;;;;;0.00;0.00;;;16.90;99.90;;;;;;5040863;28;20523;-82
2022/10/03 12:40:01;;;;;;;0.00;0.00;;;17.00;99.90;;;;;;5032865;28;20421;-82
2022/10/03 12:42:32;;;;;;;0.00;0.00;;;17.10;99.90;;;;;;5034147;28;20069;-82
2022/10/03 12:45:08;;;;;;;0.00;0.00;;;17.80;99.90;;;;;;5045387;28;20076;-82
2022/10/03 12:47:52;;;;;;;0.00;0.00;;;17.10;99.90;;;;;;5046730;28;20112;-82
2022/10/03 12:50:36;;;;;;;0.00;0.00;;;17.10;99.90;;;;;;5036202;28;20505;-81
2022/10/03 12:53:28;;;;;;;0.00;0.00;;;16.60;99.90;;;;;;5032033;28;20037;-81
2022/10/03 12:56:05;;;;;;;0.00;0.00;;;16.60;99.90;;;;;;5046646;28;20127;-82
2022/10/03 12:58:51;;;;;;;0.00;0.00;;;16.80;99.90;;;;;;5054927;28;20080;-82
2022/10/03 13:01:31;;;;;;;0.00;0.00;;;16.80;99.90;;;;;;5028454;28;20181;-82
2022/10/03 13:04:02;;;;;;;0.00;0.00;;;16.60;99.90;;;;;;5042456;28;20044;-82
2022/10/03 13:06:45;;;;;;;0.00;0.00;;;16.40;99.90;;;;;;5034243;28;20486;-82
2022/10/03 13:09:59;;;;;;;0.00;0.00;;;16.30;99.90;;;;;;5028982;28;20505;-82
2022/10/03 13:12:41;;;;;;;0.00;0.00;;;16.40;99.90;;;;;;5022497;28;20107;-81
2022/10/03 13:15:39;;;;;;;0.10;0.10;;;16.40;99.90;;;;;;5037917;28;20040;-82
2022/10/03 13:18:31;;;;;;;0.00;0.00;;;16.40;99.90;;;;;;5035313;28;20045;-82
2022/10/03 13:21:07;;;;;;;0.00;0.00;;;16.40;99.90;;;;;;5040395;28;20047;-82
2022/10/03 13:23:57;;;;;;;0.00;0.00;;;16.30;99.90;;;;;;5040638;28;20053;-82
2022/10/03 13:26:26;;;;;;;;;;;16.30;99.90;;;;;;5033889;28;20069;-82
2022/10/03 13:29:12;;;;;;;0.00;0.00;;;16.30;99.90;;;;;;5043169;28;19921;-82
2022/10/03 13:31:54;;;;;;;0.00;0.00;;;16.40;99.90;;;;;;5031808;28;20484;-82
2022/10/03 13:34:26;;;;;;;0.00;0.00;;;16.40;99.90;;;;;;5031503;28;20037;-82
2022/10/03 13:36:58;;;;;;;0.00;0.00;;;16.50;99.90;;;;;;5034040;28;20099;-82
2022/10/03 13:39:28;;;;;;;0.03;0.03;;;16.60;99.90;;;;;;5035351;28;20041;-82
2022/10/03 13:42:07;;;;;;;0.00;0.00;;;16.50;99.90;;;;;;5038193;28;20037;-82
2022/10/03 13:44:36;;;;;;;0.00;0.00;;;16.60;99.90;;;;;;5036127;28;20042;-82
2022/10/03 13:47:19;;;;;;;0.00;0.00;;;16.60;99.90;;;;;;5047719;28;20059;-81
2022/10/03 13:49:52;;;;;;;0.00;0.00;;;16.40;99.90;;;;;;5027038;28;20045;-82
2022/10/03 13:52:29;;;;;;;0.00;0.00;;;16.30;99.90;;;;;;5034343;28;20146;-82
2022/10/03 13:55:18;;;;;;;0.00;0.00;;;16.40;99.90;;;;;;5029114;28;20045;-82
2022/10/03 13:57:56;;;;;;;0.00;0.00;;;16.50;99.90;;;;;;5041332;28;20056;-82
2022/10/03 14:00:26;;;;;;;0.00;0.00;;;16.40;99.90;;;;;;5038528;28;20037;-82
2022/10/03 14:03:10;;;;;;;0.00;0.00;;;16.30;99.90;;;;;;5037681;28;20037;-82
2022/10/03 14:05:57;;;;;;;0.00;0.00;;;16.40;99.90;;;;;;5031480;28;20382;-82
2022/10/03 14:08:41;;;;;;;0.00;0.00;;;16.40;99.90;;;;;;5034560;28;20048;-83
2022/10/03 14:11:23;;;;;;;0.00;0.00;;;16.50;99.90;;;;;;5030755;28;20041;-81
2022/10/03 14:14:10;;;;;;;0.00;0.00;;;16.20;99.90;;;;;;5042514;28;20033;-82
2022/10/03 14:16:44;;;;;;;0.00;0.00;;;15.90;99.90;;;;;;5039381;28;20046;-82
2022/10/03 14:19:22;;;;;;;0.00;0.00;;;16.00;99.90;;;;;;5047318;28;20049;-82
2022/10/03 14:22:22;;;;;;;0.00;0.00;;;16.00;99.90;;;;;;5040851;28;20056;-81
2022/10/03 14:25:02;;;;;;;0.00;0.00;;;16.10;99.90;;;;;;5034279;28;20496;-82
2022/10/03 14:27:49;;;;;;;0.00;0.00;;;17.40;99.90;;;;;;5044914;28;20531;-81
2022/10/03 14:30:20;;;;;;;0.00;0.00;;;16.20;99.90;;;;;;5031489;28;20041;-81
2022/10/03 14:32:56;;;;;;;0.00;0.00;;;16.10;99.90;;;;;;5040442;28;20049;-82
2022/10/03 14:35:36;;;;;;;0.00;0.00;;;16.20;99.90;;;;;;5038682;28;20075;-81
2022/10/03 14:38:56;;;;;;;0.00;0.00;;;16.30;99.90;;;;;;5035039;28;20497;-82
2022/10/03 14:41:20;;;;;;;0.00;0.00;;;16.40;99.90;;;;;;5034755;28;20049;-79
2022/10/03 14:43:50;;;;;;;0.00;0.00;;;16.20;99.90;;;;;;5035111;28;20494;-81
2022/10/03 14:46:19;;;;;;;0.00;0.00;;;16.20;99.90;;;;;;5044138;28;20034;-82
2022/10/03 14:48:50;;;;;;;0.00;0.00;;;16.20;99.90;;;;;;5040329;28;20082;-80
2022/10/03 14:51:22;;;;;;;0.00;0.00;;;16.20;99.90;;;;;;5039435;28;20323;-82
2022/10/03 14:53:56;;;;;;;0.00;0.00;;;16.10;99.90;;;;;;5057203;28;20048;-82
2022/10/03 14:56:24;;;;;;;0.00;0.00;;;16.20;99.90;;;;;;5038705;28;20052;-80